Time;durP1;ratioP1;P1;durP2;ratioP2;P2;SDS_P1;SDS_P2;PMS_P1;PMS_P2;Temp;Humidity;BMP_temperature;BMP_pressure;BME280_temperature;BME280_humidity;BME280_pressure;Samples;Min_cycle;Max_cycle;Signal;HPM_P1;HPM_P2
2021/06/10 00:01:59;;;;;;;13.75;7.75;;;;;;;14.81;98.69;99518.78;1694467;84;21165;-79
2021/06/10 00:04:28;;;;;;;9.03;8.10;;;;;;;14.80;98.70;99513.12;1690911;83;21563;-79
2021/06/10 00:06:55;;;;;;;11.73;8.20;;;;;;;14.79;98.89;99511.42;1690831;83;21042;-79
2021/06/10 00:09:22;;;;;;;9.83;7.25;;;;;;;14.77;98.99;99513.77;1690975;84;21114;-78
2021/06/10 00:12:00;;;;;;;11.88;8.58;;;;;;;14.74;98.94;99510.84;1690940;84;21030;-76
2021/06/10 00:14:27;;;;;;;9.60;6.33;;;;;;;14.75;99.18;99519.19;1678180;85;21207;-80
2021/06/10 00:16:54;;;;;;;10.55;8.53;;;;;;;14.72;99.37;99518.52;1680164;85;20967;-82
2021/06/10 00:19:21;;;;;;;10.43;8.50;;;;;;;14.71;99.38;99511.05;1635982;87;21065;-82
2021/06/10 00:21:48;;;;;;;8.73;7.40;;;;;;;14.70;99.54;99514.67;1635036;87;21070;-82
2021/06/10 00:24:15;;;;;;;11.03;8.83;;;;;;;14.68;99.44;99512.11;1635475;87;21153;-83
2021/06/10 00:26:42;;;;;;;13.05;8.95;;;;;;;14.67;99.66;99520.98;1634675;87;21098;-82
2021/06/10 00:29:09;;;;;;;10.93;9.00;;;;;;;14.67;99.89;99514.84;1678638;80;21145;-73
2021/06/10 00:31:37;;;;;;;11.20;8.45;;;;;;;14.65;100.00;99507.02;1706656;83;21578;-71
2021/06/10 00:34:04;;;;;;;7.42;6.08;;;;;;;14.63;100.00;99506.70;1712268;83;21070;-72
2021/06/10 00:36:32;;;;;;;11.28;8.58;;;;;;;14.62;100.00;99512.48;1712257;83;21126;-71
2021/06/10 00:38:59;;;;;;;9.88;7.95;;;;;;;14.63;100.00;99511.55;1712186;83;21140;-71
2021/06/10 00:41:32;;;;;;;9.08;7.53;;;;;;;14.61;100.00;99501.52;1712097;83;21066;-70
2021/06/10 00:44:00;;;;;;;14.20;8.43;;;;;;;14.61;100.00;99499.36;1674437;80;21155;-84
2021/06/10 00:46:27;;;;;;;8.20;6.58;;;;;;;14.59;100.00;99503.89;1660508;86;21088;-84
2021/06/10 00:48:55;;;;;;;11.30;7.87;;;;;;;14.60;100.00;99500.28;1628070;87;21667;-83
2021/06/10 00:51:22;;;;;;;10.98;8.65;;;;;;;14.61;100.00;99496.70;1660647;85;21144;-83
2021/06/10 00:53:49;;;;;;;7.78;6.60;;;;;;;14.59;100.00;99493.30;1660570;86;21097;-83
2021/06/10 00:56:16;;;;;;;12.00;8.93;;;;;;;14.58;100.00;99494.23;1668878;80;21931;-84
2021/06/10 00:58:43;;;;;;;8.50;7.70;;;;;;;14.58;100.00;99496.88;1699192;82;21319;-84
2021/06/10 01:01:10;;;;;;;13.13;8.88;;;;;;;14.58;100.00;99494.23;1734235;81;21035;-82
2021/06/10 01:03:37;;;;;;;13.30;8.48;;;;;;;14.56;100.00;99503.63;1729514;82;21589;-81
2021/06/10 01:06:14;;;;;;;10.32;8.60;;;;;;;14.54;100.00;99501.95;1710395;81;21090;-81
2021/06/10 01:08:46;;;;;;;13.18;9.23;;;;;;;14.51;100.00;99495.54;1729082;82;21145;-80
2021/06/10 01:11:44;;;;;;;12.18;8.98;;;;;;;14.48;100.00;99502.73;1729582;81;21149;-83
2021/06/10 01:14:19;;;;;;;6.95;5.97;;;;;;;14.46;100.00;99498.00;1730833;82;21063;-83
2021/06/10 01:16:47;;;;;;;11.30;9.20;;;;;;;14.45;100.00;99500.28;1730522;82;22376;-81
2021/06/10 01:19:43;;;;;;;10.48;8.08;;;;;;;14.45;100.00;99500.28;1730271;82;21445;-82
2021/06/10 01:22:31;;;;;;;9.35;5.58;;;;;;;14.45;100.00;99504.26;1730896;81;21033;-82
2021/06/10 01:25:33;;;;;;;11.12;8.03;;;;;;;14.44;100.00;99501.21;1730281;81;21528;-85
2021/06/10 01:28:17;;;;;;;11.95;9.83;;;;;;;14.44;100.00;99499.89;1757046;81;21809;-82
2021/06/10 01:30:55;;;;;;;9.43;8.20;;;;;;;14.45;100.00;99495.47;1753193;81;21835;-82
2021/06/10 01:33:26;;;;;;;12.63;8.35;;;;;;;14.44;100.00;99491.94;1748449;82;21027;-82
2021/06/10 01:35:57;;;;;;;13.70;9.60;;;;;;;14.45;100.00;99491.49;1773009;80;21579;-82
2021/06/10 01:38:25;;;;;;;10.32;9.20;;;;;;;14.45;100.00;99494.98;1776844;80;21033;-84
2021/06/10 01:40:53;;;;;;;14.28;9.50;;;;;;;14.46;100.00;99494.02;1776834;79;21139;-84
2021/06/10 01:43:20;;;;;;;13.55;9.10;;;;;;;14.48;100.00;99495.27;1775099;79;21907;-84
2021/06/10 01:45:51;;;;;;;13.90;9.08;;;;;;;14.51;100.00;99497.70;1803514;79;21508;-83
2021/06/10 01:48:20;;;;;;;10.97;6.90;;;;;;;14.53;100.00;99491.00;1763980;79;21075;-83
2021/06/10 01:50:53;;;;;;;9.53;7.22;;;;;;;14.56;100.00;99493.47;1803320;78;21615;-82
2021/06/10 01:53:20;;;;;;;5.95;5.35;;;;;;;14.58;100.00;99502.18;1803192;79;21014;-82
2021/06/10 01:55:48;;;;;;;12.95;9.50;;;;;;;14.59;100.00;99493.30;1803022;78;21862;-83
2021/06/10 01:58:15;;;;;;;10.88;7.45;;;;;;;14.64;100.00;99497.83;1803215;78;21041;-83
2021/06/10 02:00:42;;;;;;;14.87;10.13;;;;;;;14.66;100.00;99498.58;1779133;79;21001;-81
2021/06/10 02:03:09;;;;;;;10.93;9.10;;;;;;;14.70;100.00;99501.41;1803295;78;21041;-82
2021/06/10 02:05:40;;;;;;;12.70;7.53;;;;;;;14.71;100.00;99496.95;1803811;79;21603;-82
2021/06/10 02:08:11;;;;;;;13.35;8.93;;;;;;;14.73;100.00;99492.41;1803262;79;21490;-82
2021/06/10 02:10:40;;;;;;;6.95;6.25;;;;;;;14.75;100.00;99496.66;1803204;78;21073;-83
2021/06/10 02:13:08;;;;;;;11.12;8.05;;;;;;;14.78;100.00;99492.48;1803488;78;21021;-83
2021/06/10 02:15:35;;;;;;;11.83;8.50;;;;;;;14.80;100.00;99491.91;1803340;79;21029;-83
2021/06/10 02:18:04;;;;;;;9.78;7.65;;;;;;;14.84;100.00;99495.23;1803497;79;21009;-82
2021/06/10 02:20:31;;;;;;;13.20;9.10;;;;;;;14.87;100.00;99491.04;1803352;79;21523;-81
2021/06/10 02:22:58;;;;;;;11.45;9.35;;;;;;;14.89;100.00;99493.96;1803387;78;21763;-83
2021/06/10 02:25:25;;;;;;;9.45;6.78;;;;;;;14.93;100.00;99499.94;1779121;79;21029;-83
2021/06/10 02:27:52;;;;;;;14.53;9.40;;;;;;;14.95;100.00;99495.35;1803856;79;21017;-84
2021/06/10 02:30:21;;;;;;;11.60;8.40;;;;;;;14.98;100.00;99491.67;1791028;79;21050;-83
2021/06/10 02:32:48;;;;;;;14.13;9.48;;;;;;;15.01;100.00;99491.47;1756970;80;21618;-83
2021/06/10 02:35:16;;;;;;;11.63;9.18;;;;;;;15.04;100.00;99487.28;1756790;81;21138;-83
2021/06/10 02:37:47;;;;;;;9.25;7.95;;;;;;;15.05;100.00;99498.28;1745508;80;21100;-85
2021/06/10 02:40:18;;;;;;;11.18;9.18;;;;;;;15.07;100.00;99499.03;1741952;81;21597;-84
2021/06/10 02:42:46;;;;;;;9.73;8.33;;;;;;;15.10;100.00;99502.31;1742938;82;21548;-85
2021/06/10 02:45:14;;;;;;;9.98;8.20;;;;;;;15.13;100.00;99497.28;1742652;81;21477;-85
2021/06/10 02:47:41;;;;;;;10.85;8.50;;;;;;;15.17;100.00;99499.27;1742346;82;21531;-82
2021/06/10 02:50:11;;;;;;;10.58;7.00;;;;;;;15.21;100.00;99500.29;1740996;81;21108;-80
2021/06/10 02:52:45;;;;;;;12.82;8.98;;;;;;;15.26;100.00;99503.48;1718401;82;21031;-82
2021/06/10 02:56:30;;;;;;;12.05;9.20;;;;;;;15.41;100.00;99499.42;1814079;79;22818;-84
2021/06/10 02:59:00;;;;;;;13.18;8.38;;;;;;;15.44;100.00;99496.58;1759998;80;21027;-82
2021/06/10 03:01:34;;;;;;;9.03;5.20;;;;;;;15.54;100.00;99500.30;1760614;81;21084;-83
2021/06/10 03:04:02;;;;;;;9.50;8.50;;;;;;;15.62;100.00;99497.99;1759683;81;20949;-82
2021/06/10 03:06:29;;;;;;;7.45;6.65;;;;;;;15.74;99.96;99496.34;1729605;81;21026;-80
2021/06/10 03:08:56;;;;;;;13.62;8.73;;;;;;;15.82;99.49;99493.14;1740311;81;21028;-80
2021/06/10 03:11:23;;;;;;;9.50;8.45;;;;;;;15.87;98.98;99499.86;1746522;81;21017;-81
2021/06/10 03:13:51;;;;;;;9.85;7.58;;;;;;;15.92;98.70;99496.88;1747692;81;21135;-81
2021/06/10 03:16:18;;;;;;;10.58;8.48;;;;;;;15.97;98.27;99492.09;1746289;81;21033;-83
2021/06/10 03:18:45;;;;;;;11.12;8.73;;;;;;;16.06;97.98;99494.11;1742301;81;21193;-82
2021/06/10 03:21:12;;;;;;;10.43;7.97;;;;;;;16.17;97.98;99496.48;1745510;81;21524;-80
2021/06/10 03:23:39;;;;;;;9.90;8.28;;;;;;;16.30;97.51;99499.97;1736403;81;21053;-72
2021/06/10 03:26:07;;;;;;;8.10;7.12;;;;;;;16.45;97.16;99502.88;1725281;81;21128;-81
2021/06/10 03:28:34;;;;;;;10.45;8.15;;;;;;;16.60;96.68;99492.10;1743592;79;21116;-78
2021/06/10 03:31:01;;;;;;;11.85;8.25;;;;;;;16.74;95.71;99494.60;1742591;81;21595;-82
2021/06/10 03:33:28;;;;;;;11.73;7.85;;;;;;;16.90;95.64;99499.20;1731988;81;21069;-83
2021/06/10 03:35:55;;;;;;;10.38;8.08;;;;;;;17.09;94.70;99495.19;1756953;81;21025;-81
2021/06/10 03:38:24;;;;;;;10.18;7.03;;;;;;;17.26;93.10;99492.62;1742756;79;21543;-87
2021/06/10 03:40:51;;;;;;;11.28;8.50;;;;;;;17.37;92.88;99494.84;1739395;81;21108;-74
2021/06/10 03:43:18;;;;;;;9.13;7.97;;;;;;;17.57;91.93;99487.14;1728020;81;21078;-74
2021/06/10 03:45:46;;;;;;;10.15;6.55;;;;;;;17.77;91.10;99489.13;1749247;81;21032;-73
2021/06/10 03:48:13;;;;;;;9.50;7.85;;;;;;;17.97;89.28;99491.61;1739610;79;21589;-74
2021/06/10 03:50:40;;;;;;;7.60;6.67;;;;;;;18.15;87.90;99490.66;1728546;81;21044;-73
2021/06/10 03:53:07;;;;;;;12.03;8.03;;;;;;;18.36;86.60;99500.11;1741041;81;21515;-74
2021/06/10 03:55:35;;;;;;;10.38;8.00;;;;;;;18.57;85.71;99499.38;1755934;79;21010;-73
2021/06/10 03:58:03;;;;;;;8.75;7.70;;;;;;;18.74;83.66;99488.17;1732405;81;21003;-74
2021/06/10 04:00:29;;;;;;;10.65;7.90;;;;;;;18.94;83.21;99492.41;1747483;80;21523;-85
2021/06/10 04:02:58;;;;;;;11.45;7.17;;;;;;;19.20;82.17;99486.25;1749318;80;21095;-76
2021/06/10 04:05:28;;;;;;;11.80;7.60;;;;;;;19.44;80.48;99484.20;1748509;80;21605;-76
2021/06/10 04:07:56;;;;;;;9.70;7.85;;;;;;;19.67;78.12;99485.42;1745054;80;21089;-75
2021/06/10 04:10:23;;;;;;;7.65;6.87;;;;;;;19.88;77.51;99480.94;1767648;80;21289;-75
2021/06/10 04:12:51;;;;;;;11.40;7.83;;;;;;;20.14;76.10;99486.34;1730578;81;21057;-74
2021/06/10 04:15:19;;;;;;;8.78;7.72;;;;;;;20.33;75.50;99487.25;1729885;82;21062;-76
2021/06/10 04:17:50;;;;;;;8.55;7.15;;;;;;;20.48;73.56;99493.59;1730224;81;21650;-73
2021/06/10 04:20:17;;;;;;;12.40;8.15;;;;;;;20.62;72.12;99496.41;1740614;81;21007;-75
2021/06/10 04:22:44;;;;;;;10.30;7.92;;;;;;;20.65;72.35;99494.29;1740567;81;21113;-74
2021/06/10 04:25:12;;;;;;;8.60;6.65;;;;;;;20.74;71.43;99489.45;1750065;81;21034;-75
2021/06/10 04:27:39;;;;;;;8.30;7.42;;;;;;;21.01;71.34;99487.96;1750157;81;21368;-73
2021/06/10 04:30:09;;;;;;;8.63;6.85;;;;;;;21.27;70.42;99491.42;1747596;80;21067;-74
2021/06/10 04:32:36;;;;;;;10.70;7.72;;;;;;;21.50;69.77;99487.49;1731913;81;26045;-75
2021/06/10 04:35:06;;;;;;;9.13;7.10;;;;;;;21.75;69.02;99485.21;1740116;81;21050;-73
2021/06/10 04:37:33;;;;;;;7.15;5.67;;;;;;;21.95;66.94;99482.00;1753269;81;21652;-74
2021/06/10 04:39:59;;;;;;;7.78;7.03;;;;;;;22.17;65.35;99487.48;1750567;81;21126;-73
2021/06/10 04:42:26;;;;;;;9.05;7.00;;;;;;;22.39;65.21;99483.13;1738798;81;21597;-74
2021/06/10 04:44:54;;;;;;;7.92;7.12;;;;;;;22.51;64.08;99480.25;1737099;81;21113;-73
2021/06/10 04:47:21;;;;;;;10.93;7.03;;;;;;;22.53;64.54;99478.27;1715772;82;21054;-75
2021/06/10 04:49:47;;;;;;;8.63;6.75;;;;;;;22.65;64.05;99488.30;1749579;81;21109;-75
2021/06/10 04:52:14;;;;;;;9.98;7.10;;;;;;;22.80;62.93;99488.98;1758698;80;21951;-75
2021/06/10 04:54:42;;;;;;;8.65;6.78;;;;;;;22.98;62.99;99484.11;1766113;80;21054;-74
2021/06/10 04:57:09;;;;;;;7.45;6.72;;;;;;;23.21;61.27;99482.72;1759851;80;21061;-75
2021/06/10 04:59:36;;;;;;;11.30;7.30;;;;;;;23.30;61.64;99486.80;1760042;81;21057;-76
2021/06/10 05:02:08;;;;;;;7.37;6.58;;;;;;;23.36;60.94;99477.63;1760006;81;21078;-74
2021/06/10 05:04:33;;;;;;;12.15;7.17;;;;;;;23.53;58.91;99481.28;1758935;81;21147;-74
2021/06/10 05:06:59;;;;;;;7.70;6.58;;;;;;;23.73;59.97;99483.80;1760578;81;22360;-74
2021/06/10 05:09:27;;;;;;;7.45;6.58;;;;;;;23.84;58.38;99481.73;1760765;81;21061;-76
2021/06/10 05:11:54;;;;;;;10.35;6.60;;;;;;;23.90;57.49;99483.43;1760821;81;21046;-72
2021/06/10 05:14:21;;;;;;;9.63;5.55;;;;;;;24.03;58.26;99484.69;1760730;81;21646;-74
2021/06/10 05:16:49;;;;;;;7.22;6.53;;;;;;;24.14;57.24;99484.09;1761031;81;21158;-73
2021/06/10 05:19:17;;;;;;;9.28;6.08;;;;;;;24.28;57.01;99482.98;1760696;80;21042;-75
2021/06/10 05:21:44;;;;;;;5.80;5.22;;;;;;;24.36;56.16;99478.64;1760813;81;21560;-74
2021/06/10 05:24:15;;;;;;;7.15;6.45;;;;;;;24.36;54.97;99482.67;1761216;81;21030;-75
2021/06/10 05:26:42;;;;;;;9.35;4.95;;;;;;;24.21;55.52;99475.72;1760902;81;21018;-74
2021/06/10 05:29:09;;;;;;;6.25;5.65;;;;;;;24.21;54.47;99482.45;1760877;81;21085;-74
2021/06/10 05:31:37;;;;;;;8.08;5.70;;;;;;;24.11;55.95;99480.36;1736510;81;21545;-75
2021/06/10 05:34:04;;;;;;;7.90;4.90;;;;;;;24.05;56.18;99477.31;1730955;82;21049;-76
2021/06/10 05:36:31;;;;;;;8.23;6.22;;;;;;;23.92;55.10;99478.23;1730285;82;21655;-74
2021/06/10 05:38:58;;;;;;;7.40;5.97;;;;;;;24.02;56.94;99473.61;1730815;82;21077;-75
2021/06/10 05:41:25;;;;;;;11.20;6.03;;;;;;;24.16;56.19;99479.41;1730292;82;21553;-75
2021/06/10 05:43:53;;;;;;;7.60;5.15;;;;;;;24.28;55.41;99478.95;1730580;82;21218;-74
2021/06/10 05:46:22;;;;;;;12.40;5.80;;;;;;;24.46;55.45;99479.38;1730582;82;21061;-74
2021/06/10 05:48:49;;;;;;;8.03;5.20;;;;;;;24.73;54.02;99485.53;1730669;82;21066;-74
2021/06/10 05:51:17;;;;;;;9.88;5.22;;;;;;;25.00;53.38;99483.92;1730545;82;21491;-75
2021/06/10 05:53:44;;;;;;;6.55;4.83;;;;;;;25.24;52.42;99483.16;1730692;81;21580;-75
2021/06/10 05:56:11;;;;;;;8.73;5.37;;;;;;;25.32;50.85;99485.84;1719017;81;22055;-76
2021/06/10 05:58:38;;;;;;;6.55;4.85;;;;;;;25.38;51.22;99488.91;1704597;84;21138;-74
2021/06/10 06:01:05;;;;;;;13.20;5.47;;;;;;;25.49;49.97;99476.41;1704429;84;21086;-74
2021/06/10 06:03:32;;;;;;;12.85;6.30;;;;;;;25.54;49.71;99486.20;1704689;84;21078;-75
2021/06/10 06:06:00;;;;;;;8.95;5.58;;;;;;;25.45;51.30;99474.58;1704577;84;21161;-74
2021/06/10 06:08:28;;;;;;;6.95;5.92;;;;;;;25.55;50.38;99478.45;1704394;84;21206;-74
2021/06/10 06:10:56;;;;;;;6.50;5.65;;;;;;;25.71;50.52;99477.08;1704551;84;21083;-77
2021/06/10 06:16:09;;;;;;;7.40;5.30;;;;;;;26.18;49.59;99478.70;1716357;82;21014;-75
2021/06/10 06:18:36;;;;;;;13.00;5.37;;;;;;;26.46;49.41;99477.27;1737845;82;22278;-75
2021/06/10 06:21:02;;;;;;;12.85;5.75;;;;;;;26.79;47.56;99473.91;1740899;82;21077;-74
2021/06/10 06:23:31;;;;;;;12.40;5.08;;;;;;;26.95;45.41;99467.57;1741285;82;21668;-75
2021/06/10 06:25:59;;;;;;;6.62;5.05;;;;;;;27.04;46.36;99474.28;1731306;82;21132;-77
2021/06/10 06:28:27;;;;;;;7.20;4.70;;;;;;;27.10;45.65;99472.20;1714054;82;21516;-74
2021/06/10 06:30:54;;;;;;;6.10;4.40;;;;;;;27.04;46.16;99469.72;1716937;82;21741;-76
2021/06/10 06:33:21;;;;;;;7.35;3.95;;;;;;;26.89;44.68;99484.48;1728987;82;21101;-75
2021/06/10 06:35:48;;;;;;;7.22;4.87;;;;;;;26.81;44.22;99473.74;1719550;82;21113;-75
2021/06/10 06:38:15;;;;;;;11.00;3.80;;;;;;;26.80;45.46;99478.80;1728486;82;21057;-75
2021/06/10 06:40:42;;;;;;;5.20;4.62;;;;;;;26.67;44.80;99471.80;1730607;82;21594;-74
2021/06/10 06:43:11;;;;;;;6.60;3.80;;;;;;;26.85;46.57;99475.08;1712783;82;21121;-75
2021/06/10 06:45:38;;;;;;;16.62;4.00;;;;;;;26.95;44.81;99474.33;1713039;83;21555;-76
2021/06/10 06:48:06;;;;;;;6.25;3.50;;;;;;;27.27;44.23;99472.45;1716353;80;21043;-76
2021/06/10 06:50:33;;;;;;;6.37;3.15;;;;;;;27.51;43.76;99468.69;1725646;80;21108;-74
2021/06/10 06:53:00;;;;;;;4.03;3.20;;;;;;;27.80;42.42;99473.33;1725500;82;21626;-73
2021/06/10 06:55:27;;;;;;;4.72;3.40;;;;;;;28.11;41.55;99468.81;1742218;80;21117;-71
2021/06/10 06:57:54;;;;;;;8.00;3.35;;;;;;;28.39;41.01;99470.34;1759650;80;21024;-71
2021/06/10 07:00:22;;;;;;;3.92;3.58;;;;;;;28.55;40.38;99456.65;1746735;80;21101;-72
2021/06/10 07:02:49;;;;;;;6.00;3.52;;;;;;;28.66;41.00;99475.09;1742266;80;21012;-72
2021/06/10 07:05:16;;;;;;;2.85;2.33;;;;;;;28.79;39.13;99478.48;1741220;80;21101;-72
2021/06/10 07:07:42;;;;;;;3.80;3.22;;;;;;;28.88;37.15;99484.64;1696355;82;21122;-73
2021/06/10 07:10:11;;;;;;;3.70;2.67;;;;;;;28.67;39.15;99473.25;1733682;81;21583;-72
2021/06/10 07:12:38;;;;;;;5.72;3.30;;;;;;;28.62;37.93;99472.95;1744281;81;21061;-71
2021/06/10 07:15:06;;;;;;;5.47;3.30;;;;;;;28.56;39.90;99469.15;1741823;80;21073;-72
2021/06/10 07:17:33;;;;;;;6.08;3.80;;;;;;;28.50;39.88;99464.48;1736221;80;21105;-72
2021/06/10 07:20:01;;;;;;;6.22;3.72;;;;;;;28.40;39.56;99472.03;1733781;81;21109;-72
2021/06/10 07:22:39;;;;;;;4.45;2.83;;;;;;;28.39;40.81;99475.75;1736972;81;21109;-72
2021/06/10 07:25:07;;;;;;;3.58;3.17;;;;;;;28.38;39.33;99476.80;1748030;80;21548;-71
2021/06/10 07:27:34;;;;;;;5.08;3.50;;;;;;;28.51;39.84;99479.72;1745989;81;21050;-73
2021/06/10 07:30:01;;;;;;;3.85;3.20;;;;;;;28.57;40.53;99478.11;1733077;81;21089;-72
2021/06/10 07:32:28;;;;;;;3.70;3.40;;;;;;;28.43;39.97;99477.06;1741715;80;21105;-71
2021/06/10 07:34:56;;;;;;;4.20;3.30;;;;;;;28.36;40.72;99479.69;1743259;80;21093;-72
2021/06/10 07:37:23;;;;;;;6.83;3.20;;;;;;;28.18;40.12;99477.38;1734008;81;21365;-74
2021/06/10 07:39:50;;;;;;;5.35;3.30;;;;;;;28.11;40.55;99487.24;1734589;81;21081;-71
2021/06/10 07:42:17;;;;;;;8.93;3.15;;;;;;;28.14;41.44;99484.19;1738994;80;21063;-72
2021/06/10 07:44:44;;;;;;;6.65;3.37;;;;;;;28.20;40.45;99490.19;1747325;81;21109;-73
2021/06/10 07:47:11;;;;;;;21.40;4.97;;;;;;;28.37;41.61;99477.31;1739836;79;21098;-71
2021/06/10 07:49:39;;;;;;;4.65;2.95;;;;;;;28.61;40.60;99476.70;1732602;81;21603;-72
2021/06/10 07:52:06;;;;;;;4.78;2.85;;;;;;;28.92;38.01;99485.94;1751011;81;21069;-71
2021/06/10 07:54:33;;;;;;;3.87;3.00;;;;;;;28.98;38.56;99477.55;1745336;81;21117;-72
2021/06/10 07:57:00;;;;;;;4.47;2.70;;;;;;;28.89;37.81;99485.47;1730296;81;21995;-73
2021/06/10 07:59:27;;;;;;;5.10;3.10;;;;;;;28.58;37.18;99487.41;1730738;82;21057;-71
2021/06/10 08:01:54;;;;;;;4.87;3.33;;;;;;;28.37;38.79;99485.96;1730585;82;21564;-73
2021/06/10 08:04:22;;;;;;;4.50;3.30;;;;;;;28.33;38.75;99481.94;1747534;81;21081;-72
2021/06/10 08:06:49;;;;;;;10.85;3.20;;;;;;;28.40;38.97;99480.16;1755277;81;21054;-71
2021/06/10 08:09:16;;;;;;;4.10;2.95;;;;;;;28.59;37.39;99482.30;1735293;81;21841;-72
2021/06/10 08:11:45;;;;;;;4.80;2.98;;;;;;;28.86;38.08;99482.11;1737738;81;21170;-71
2021/06/10 08:14:12;;;;;;;4.42;2.65;;;;;;;29.17;38.45;99472.03;1745315;80;21033;-73
2021/06/10 08:16:40;;;;;;;7.20;2.92;;;;;;;29.35;36.61;99481.08;1760777;81;21007;-72
2021/06/10 08:19:08;;;;;;;12.47;3.60;;;;;;;29.47;36.53;99480.38;1744863;81;21059;-72
2021/06/10 08:21:35;;;;;;;2.87;2.15;;;;;;;29.49;35.52;99482.37;1742607;81;22140;-73
2021/06/10 08:24:01;;;;;;;3.02;2.40;;;;;;;29.28;34.69;99478.30;1741674;81;21106;-71
2021/06/10 08:26:29;;;;;;;3.67;2.52;;;;;;;28.96;36.19;99480.44;1743283;81;21076;-71
2021/06/10 08:28:56;;;;;;;3.25;2.70;;;;;;;28.94;36.14;99489.30;1742199;81;21616;-73
2021/06/10 08:31:23;;;;;;;5.95;2.35;;;;;;;28.92;37.49;99471.04;1739114;81;21074;-71
2021/06/10 08:33:52;;;;;;;5.85;2.35;;;;;;;28.66;37.76;99468.84;1689982;83;21161;-72
2021/06/10 08:36:21;;;;;;;4.05;2.47;;;;;;;28.29;37.25;99464.39;1747702;81;21569;-72
2021/06/10 08:38:50;;;;;;;7.33;2.98;;;;;;;28.04;38.36;99464.66;1760955;81;21811;-72
2021/06/10 08:41:17;;;;;;;5.00;2.72;;;;;;;27.84;37.92;99475.20;1760764;81;21088;-72
2021/06/10 08:43:45;;;;;;;12.53;3.20;;;;;;;27.64;38.71;99481.61;1760910;81;21039;-71
2021/06/10 08:46:12;;;;;;;4.67;2.60;;;;;;;27.38;39.97;99494.17;1746670;81;21853;-73
2021/06/10 08:48:46;;;;;;;4.70;2.95;;;;;;;27.10;38.71;99498.73;1743106;81;21073;-74
2021/06/10 08:51:14;;;;;;;4.05;2.80;;;;;;;26.81;41.49;99500.75;1742799;81;21109;-74
2021/06/10 08:53:41;;;;;;;3.67;2.45;;;;;;;26.49;41.86;99501.72;1740048;81;21097;-73
2021/06/10 08:56:07;;;;;;;2.83;2.45;;;;;;;26.22;40.60;99501.63;1756999;81;21061;-72
2021/06/10 08:58:34;;;;;;;6.45;2.72;;;;;;;25.94;43.57;99507.42;1744557;82;21110;-73
2021/06/10 09:01:01;;;;;;;11.83;3.05;;;;;;;25.70;43.72;99498.84;1739833;82;21120;-71
2021/06/10 09:03:31;;;;;;;7.87;2.75;;;;;;;25.31;44.73;99503.04;1744217;82;21082;-71
2021/06/10 09:06:17;;;;;;;3.15;2.50;;;;;;;25.04;45.41;99494.71;1718933;82;28694;-73
2021/06/10 09:08:46;;;;;;;5.97;2.77;;;;;;;24.83;44.73;99497.86;1727762;82;21663;-73
2021/06/10 09:11:25;;;;;;;11.55;3.30;;;;;;;24.63;46.81;99495.10;1751582;80;21143;-71
2021/06/10 09:13:57;;;;;;;3.98;2.67;;;;;;;24.44;46.85;99499.70;1679932;85;21068;-71
2021/06/10 09:16:37;;;;;;;3.75;2.83;;;;;;;24.27;46.60;99510.03;1683378;84;21550;-72
2021/06/10 09:19:17;;;;;;;6.35;3.08;;;;;;;24.17;47.87;99512.02;1715883;82;21583;-73
2021/06/10 09:21:58;;;;;;;8.83;3.80;;;;;;;24.01;47.22;99515.44;1726687;82;21133;-72
2021/06/10 09:24:33;;;;;;;5.65;4.37;;;;;;;23.90;48.62;99517.88;1714218;83;21781;-71
2021/06/10 09:27:10;;;;;;;6.20;3.80;;;;;;;23.75;53.03;99507.38;1714311;83;21025;-72
2021/06/10 09:32:13;;;;;;;8.13;4.60;;;;;;;23.36;52.24;99507.19;1843518;76;22698;-72
2021/06/10 09:34:48;;;;;;;4.25;3.70;;;;;;;23.16;53.60;99507.83;1803254;79;22123;-71
2021/06/10 09:37:30;;;;;;;8.00;5.10;;;;;;;23.05;53.90;99506.70;1796689;79;21141;-71
2021/06/10 09:39:56;;;;;;;7.45;6.30;;;;;;;22.88;55.43;99511.03;1781852;80;21076;-72
2021/06/10 09:42:33;;;;;;;7.35;5.80;;;;;;;22.53;59.20;99509.12;1793702;79;21544;-71
2021/06/10 09:45:01;;;;;;;8.85;6.15;;;;;;;22.05;60.20;99518.16;1796694;79;21504;-71
2021/06/10 09:47:36;;;;;;;9.68;5.90;;;;;;;21.65;62.32;99516.52;1791202;79;21084;-73
2021/06/10 09:50:24;;;;;;;8.93;5.55;;;;;;;21.41;63.06;99520.48;1793729;79;21184;-72
2021/06/10 09:53:09;;;;;;;8.88;6.40;;;;;;;21.28;63.08;99519.88;1796590;78;21009;-72
2021/06/10 09:55:45;;;;;;;7.42;6.67;;;;;;;21.16;64.98;99517.36;1805640;78;21546;-72
2021/06/10 09:58:18;;;;;;;7.42;5.70;;;;;;;21.14;65.07;99519.33;1798077;78;21057;-71
2021/06/10 10:00:51;;;;;;;16.15;7.78;;;;;;;21.20;63.87;99517.08;1802138;79;21139;-72
2021/06/10 10:03:32;;;;;;;15.83;9.10;;;;;;;21.18;65.46;99512.34;1800758;79;21183;-73
2021/06/10 10:06:04;;;;;;;9.78;7.15;;;;;;;21.17;64.96;99512.84;1794876;79;21091;-73
2021/06/10 10:08:32;;;;;;;10.72;7.42;;;;;;;21.15;65.33;99518.33;1790407;79;21400;-72
2021/06/10 10:11:01;;;;;;;14.25;7.78;;;;;;;21.12;66.42;99514.61;1805421;79;21599;-72
2021/06/10 10:13:30;;;;;;;8.53;7.28;;;;;;;21.06;65.89;99516.48;1789549;79;21035;-71
2021/06/10 10:16:02;;;;;;;8.38;7.35;;;;;;;21.00;66.85;99511.68;1793690;79;21162;-72
2021/06/10 10:18:31;;;;;;;9.95;6.97;;;;;;;20.93;67.01;99514.56;1792957;79;21037;-72
2021/06/10 10:21:00;;;;;;;11.93;6.83;;;;;;;20.94;66.90;99513.59;1800635;79;21080;-70
2021/06/10 10:23:27;;;;;;;9.95;7.95;;;;;;;20.94;67.06;99517.61;1802789;79;21046;-72
2021/06/10 10:26:06;;;;;;;12.60;6.00;;;;;;;20.91;67.54;99515.19;1774040;80;21057;-70
2021/06/10 10:28:35;;;;;;;7.33;6.55;;;;;;;20.79;65.86;99518.47;1791602;79;21468;-72
2021/06/10 10:31:08;;;;;;;11.80;7.17;;;;;;;20.81;67.04;99515.67;1801580;79;21024;-70
2021/06/10 10:33:42;;;;;;;12.10;7.33;;;;;;;20.76;67.22;99503.20;1803089;78;21080;-71
2021/06/10 10:36:13;;;;;;;12.43;7.35;;;;;;;20.71;67.33;99500.44;1789654;80;21053;-72
2021/06/10 10:38:41;;;;;;;7.60;6.78;;;;;;;20.68;67.46;99495.38;1728207;80;21480;-73
2021/06/10 10:41:11;;;;;;;10.63;7.08;;;;;;;20.63;67.76;99493.58;1783490;78;21858;-71
2021/06/10 10:43:42;;;;;;;9.50;7.40;;;;;;;20.58;68.59;99488.30;1794232;79;21081;-72
2021/06/10 10:46:21;;;;;;;9.80;6.30;;;;;;;20.46;70.37;99491.54;1787031;79;21073;-72
2021/06/10 10:48:50;;;;;;;13.35;8.30;;;;;;;20.37;71.32;99488.34;1779007;79;21031;-72
2021/06/10 10:51:36;;;;;;;24.02;11.53;;;;;;;20.31;72.63;99483.89;1770935;78;21047;-72
2021/06/10 10:54:10;;;;;;;12.93;9.25;;;;;;;20.25;72.66;99481.75;1789477;79;21200;-73
2021/06/10 10:56:39;;;;;;;12.23;9.50;;;;;;;20.25;72.88;99483.58;1796184;79;21570;-73
2021/06/10 10:59:19;;;;;;;13.43;9.45;;;;;;;20.32;73.55;99484.23;1805930;79;21099;-74
2021/06/10 11:02:07;;;;;;;14.58;11.22;;;;;;;20.35;72.90;99486.28;1805607;79;21485;-73
2021/06/10 11:04:53;;;;;;;19.87;10.35;;;;;;;20.35;72.63;99492.97;1795990;79;21048;-73
2021/06/10 11:07:44;;;;;;;15.20;11.35;;;;;;;20.41;72.59;99494.62;1791678;79;21812;-73
2021/06/10 11:10:18;;;;;;;14.58;9.83;;;;;;;20.52;71.37;99497.20;1805683;79;21080;-71
2021/06/10 11:12:53;;;;;;;12.00;9.18;;;;;;;20.62;69.41;99497.25;1800559;79;21025;-72
2021/06/10 11:15:26;;;;;;;13.05;10.48;;;;;;;20.72;69.11;99500.78;1791675;79;21590;-73
2021/06/10 11:18:02;;;;;;;18.62;13.45;;;;;;;20.79;68.04;99490.87;1805318;79;21037;-73
2021/06/10 11:20:41;;;;;;;16.65;12.90;;;;;;;20.98;67.10;99495.41;1777374;79;21131;-73
2021/06/10 11:23:12;;;;;;;13.62;10.23;;;;;;;21.13;67.36;99500.72;1795481;79;21080;-72
2021/06/10 11:25:44;;;;;;;9.83;7.78;;;;;;;21.30;65.77;99492.00;1794697;79;21769;-72
2021/06/10 11:28:16;;;;;;;8.63;7.10;;;;;;;21.44;64.85;99490.77;1805328;79;21575;-74
2021/06/10 11:30:44;;;;;;;10.68;7.20;;;;;;;21.52;64.96;99480.16;1805484;79;21062;-72
2021/06/10 11:33:22;;;;;;;10.32;6.60;;;;;;;21.69;63.06;99481.75;1805579;79;21117;-72
2021/06/10 11:36:09;;;;;;;12.28;7.40;;;;;;;21.85;62.86;99477.98;1799493;79;21571;-71
2021/06/10 11:38:49;;;;;;;7.17;6.47;;;;;;;22.07;62.57;99489.37;1804925;79;21021;-73
2021/06/10 11:41:21;;;;;;;7.17;5.78;;;;;;;22.27;60.46;99486.12;1790394;79;21056;-72
2021/06/10 11:43:56;;;;;;;6.15;5.55;;;;;;;22.45;57.81;99476.81;1793235;79;21085;-73
2021/06/10 11:46:42;;;;;;;9.65;5.85;;;;;;;22.64;58.89;99474.04;1794737;79;21097;-80
2021/06/10 11:49:07;;;;;;;7.78;5.37;;;;;;;22.79;57.73;99467.64;1789557;79;21006;-81